Time;durP1;ratioP1;P1;durP2;ratioP2;P2;SDS_P1;SDS_P2;PMS_P1;PMS_P2;Temp;Humidity;BMP_temperature;BMP_pressure;BME280_temperature;BME280_humidity;BME280_pressure;Samples;Min_cycle;Max_cycle;Signal;HPM_P1;HPM_P2
2022/08/17 00:02:22;;;;;;;8.10;7.50;;;23.30;88.70;;;;;;6229391;28;20229;-62
2022/08/17 00:05:30;;;;;;;8.20;7.60;;;23.30;88.70;;;;;;6229266;28;20330;-62
2022/08/17 00:08:36;;;;;;;7.63;7.00;;;23.30;88.70;;;;;;6229301;28;20253;-62
2022/08/17 00:11:43;;;;;;;7.50;6.90;;;23.20;89.20;;;;;;6229050;28;20239;-62
2022/08/17 00:15:08;;;;;;;8.37;7.73;;;23.10;89.60;;;;;;6228207;28;20237;-62
2022/08/17 00:18:13;;;;;;;7.13;6.53;;;23.10;90.00;;;;;;6230734;28;20241;-62
2022/08/17 00:21:39;;;;;;;8.53;7.90;;;23.00;90.20;;;;;;6252933;28;20284;-62
2022/08/17 00:25:02;;;;;;;7.90;7.40;;;22.90;90.40;;;;;;6253457;28;20229;-62
2022/08/17 00:28:07;;;;;;;9.70;8.80;;;22.80;90.70;;;;;;6253727;28;20250;-62
2022/08/17 00:31:12;;;;;;;8.33;7.73;;;22.80;91.10;;;;;;6252918;28;20236;-62
2022/08/17 00:34:15;;;;;;;9.63;8.73;;;22.80;91.10;;;;;;6253273;28;20575;-62
2022/08/17 00:37:18;;;;;;;8.00;7.37;;;22.70;91.10;;;;;;6252953;28;20224;-62
2022/08/17 00:40:22;;;;;;;8.57;7.87;;;22.70;91.50;;;;;;6252945;28;20239;-62
2022/08/17 00:43:32;;;;;;;8.20;7.60;;;22.70;91.50;;;;;;6252895;28;20240;-62
2022/08/17 00:46:39;;;;;;;8.47;7.87;;;22.70;91.50;;;;;;6252425;28;20232;-62
2022/08/17 00:49:42;;;;;;;8.23;7.67;;;22.60;91.70;;;;;;6247149;28;20243;-62
2022/08/17 00:52:51;;;;;;;9.27;8.57;;;22.60;91.70;;;;;;6249718;28;20574;-62
2022/08/17 00:55:54;;;;;;;8.40;7.80;;;22.60;91.90;;;;;;6227999;28;20664;-62
2022/08/17 00:59:01;;;;;;;9.57;8.77;;;22.50;92.00;;;;;;6228085;28;20245;-62
2022/08/17 01:02:06;;;;;;;8.50;7.80;;;22.50;92.10;;;;;;6232268;28;20220;-63
2022/08/17 01:05:14;;;;;;;9.47;8.77;;;22.50;92.50;;;;;;6240198;28;20395;-63
2022/08/17 01:08:21;;;;;;;8.90;8.20;;;22.40;92.50;;;;;;6237654;28;20221;-62
2022/08/17 01:11:25;;;;;;;9.30;8.40;;;22.40;92.60;;;;;;6238861;28;20221;-62
2022/08/17 01:14:29;;;;;;;10.47;9.63;;;22.30;92.80;;;;;;6234970;28;20225;-62
2022/08/17 01:17:33;;;;;;;9.60;8.90;;;22.30;92.80;;;;;;6229993;28;20240;-62
2022/08/17 01:20:38;;;;;;;9.20;8.50;;;22.30;92.90;;;;;;6238591;28;20237;-62
2022/08/17 01:23:52;;;;;;;9.63;8.50;;;22.30;93.10;;;;;;6235350;28;20557;-62
2022/08/17 01:26:55;;;;;;;10.63;9.60;;;22.20;93.30;;;;;;6239741;28;20232;-62
2022/08/17 01:30:04;;;;;;;10.30;9.40;;;22.10;93.50;;;;;;6238716;28;20236;-62
2022/08/17 01:33:27;;;;;;;9.50;8.57;;;22.10;93.70;;;;;;6239657;28;20222;-62
2022/08/17 01:36:30;;;;;;;10.50;9.70;;;22.10;93.70;;;;;;6234238;28;20252;-62
2022/08/17 01:39:40;;;;;;;9.30;8.60;;;22.10;93.80;;;;;;6239861;28;20540;-62
2022/08/17 01:42:48;;;;;;;8.00;7.30;;;22.10;93.80;;;;;;6240011;28;20345;-62
2022/08/17 01:45:54;;;;;;;8.63;7.93;;;22.10;93.80;;;;;;6227186;28;20232;-62
2022/08/17 01:49:07;;;;;;;8.20;7.43;;;22.00;93.70;;;;;;6227088;28;20229;-62
2022/08/17 01:52:11;;;;;;;8.93;8.23;;;22.10;93.90;;;;;;6227357;28;20240;-62
2022/08/17 01:55:19;;;;;;;8.47;7.63;;;22.00;94.00;;;;;;6216800;28;20594;-63
2022/08/17 01:58:29;;;;;;;8.63;7.93;;;22.00;94.10;;;;;;6226062;28;20241;-62
2022/08/17 02:01:34;;;;;;;8.90;8.10;;;21.90;94.30;;;;;;6226645;28;20687;-62
2022/08/17 02:04:37;;;;;;;8.20;7.50;;;21.90;94.40;;;;;;6226509;28;20233;-62
2022/08/17 02:07:41;;;;;;;9.50;8.70;;;21.90;94.60;;;;;;6226504;28;20715;-63
2022/08/17 02:11:06;;;;;;;9.73;8.83;;;21.90;94.90;;;;;;6225363;28;20284;-62
2022/08/17 02:14:14;;;;;;;10.10;9.20;;;21.80;95.00;;;;;;6226238;28;20379;-61
2022/08/17 02:17:17;;;;;;;10.50;9.50;;;21.80;95.10;;;;;;6228682;28;20230;-61
2022/08/17 02:20:21;;;;;;;10.50;9.37;;;21.80;95.10;;;;;;6226194;28;20240;-61
2022/08/17 02:23:48;;;;;;;10.20;9.40;;;21.80;95.20;;;;;;6225986;28;20233;-62
2022/08/17 02:26:52;;;;;;;9.83;8.90;;;21.80;95.30;;;;;;6226103;28;20567;-62
2022/08/17 02:29:56;;;;;;;9.83;9.03;;;21.80;95.40;;;;;;6225466;28;20240;-63
2022/08/17 02:32:59;;;;;;;10.33;9.40;;;21.80;95.50;;;;;;6226092;28;20267;-63
2022/08/17 02:36:09;;;;;;;9.87;9.10;;;21.70;95.60;;;;;;6225725;28;20565;-63
2022/08/17 02:39:13;;;;;;;9.93;9.03;;;21.70;95.60;;;;;;6225841;28;20240;-63
2022/08/17 02:42:17;;;;;;;10.20;8.90;;;21.70;95.60;;;;;;6225972;28;20560;-63
2022/08/17 02:45:24;;;;;;;10.00;9.30;;;21.60;95.70;;;;;;6225032;28;20235;-63
2022/08/17 02:48:27;;;;;;;10.13;9.23;;;21.60;95.90;;;;;;6225731;28;20228;-63
2022/08/17 02:51:34;;;;;;;11.90;10.47;;;21.50;96.10;;;;;;6225707;28;20217;-62
2022/08/17 02:54:37;;;;;;;11.20;9.20;;;21.50;96.30;;;;;;6225501;28;20236;-62
2022/08/17 02:57:45;;;;;;;9.50;8.70;;;21.50;96.40;;;;;;6215826;28;20636;-62
2022/08/17 03:00:48;;;;;;;9.80;8.90;;;21.50;96.40;;;;;;6225015;28;20540;-62
2022/08/17 03:03:51;;;;;;;8.80;8.00;;;21.50;96.40;;;;;;6224404;28;20243;-62
2022/08/17 03:06:55;;;;;;;9.77;9.07;;;21.50;96.50;;;;;;6225312;28;20228;-62
2022/08/17 03:09:59;;;;;;;10.67;9.83;;;21.40;96.40;;;;;;6233613;28;20236;-62
2022/08/17 03:13:04;;;;;;;8.67;7.93;;;21.40;96.60;;;;;;6233584;28;20555;-62
2022/08/17 03:16:08;;;;;;;9.77;8.87;;;21.30;96.70;;;;;;6233488;28;20248;-63
2022/08/17 03:19:12;;;;;;;8.73;8.03;;;21.30;96.70;;;;;;6233401;28;20695;-63
2022/08/17 03:22:15;;;;;;;8.63;7.90;;;21.30;96.90;;;;;;6233295;28;20229;-63
2022/08/17 03:25:41;;;;;;;8.67;7.97;;;21.20;96.90;;;;;;6232596;28;20245;-63
2022/08/17 03:28:47;;;;;;;9.67;8.80;;;21.20;97.60;;;;;;6233123;28;20307;-63
2022/08/17 03:31:51;;;;;;;9.03;8.27;;;21.10;97.50;;;;;;6233293;28;20233;-63
2022/08/17 03:34:58;;;;;;;9.00;8.30;;;21.20;97.50;;;;;;6233223;28;20240;-63
2022/08/17 03:38:01;;;;;;;11.10;10.10;;;21.10;97.60;;;;;;6233287;28;20551;-63
2022/08/17 03:41:05;;;;;;;10.07;9.17;;;21.10;97.60;;;;;;6233265;28;20311;-63
2022/08/17 03:44:10;;;;;;;10.20;9.33;;;21.10;97.60;;;;;;6232770;28;20240;-63
2022/08/17 03:57:30;;;;;;;10.00;9.10;;;20.90;98.30;;;;;;6157973;28;20677;-63
2022/08/17 04:00:38;;;;;;;10.37;9.37;;;20.80;98.50;;;;;;6232433;28;20711;-63
2022/08/17 04:03:41;;;;;;;11.30;8.90;;;20.90;98.70;;;;;;6233465;28;20205;-63
2022/08/17 04:06:45;;;;;;;10.50;9.50;;;20.90;98.80;;;;;;6232978;28;20657;-63
2022/08/17 04:09:48;;;;;;;10.37;9.37;;;20.90;98.80;;;;;;6233455;28;20243;-63
2022/08/17 04:12:54;;;;;;;9.90;8.87;;;20.90;99.00;;;;;;6232801;28;20232;-63
2022/08/17 04:15:58;;;;;;;9.93;9.00;;;20.90;99.00;;;;;;6232036;28;20236;-63
2022/08/17 04:19:02;;;;;;;10.47;9.57;;;20.90;98.90;;;;;;6231818;28;20236;-63
2022/08/17 04:22:06;;;;;;;10.57;9.50;;;20.90;99.00;;;;;;6229360;28;20221;-63
2022/08/17 04:25:16;;;;;;;9.50;8.60;;;20.90;99.00;;;;;;6228913;28;20254;-63
2022/08/17 04:28:20;;;;;;;9.83;9.03;;;20.80;99.10;;;;;;6229156;28;20225;-63
2022/08/17 04:31:26;;;;;;;9.43;8.53;;;20.90;99.20;;;;;;6228598;28;20238;-63
2022/08/17 04:34:29;;;;;;;9.43;8.57;;;20.90;99.20;;;;;;6228113;28;20240;-63
2022/08/17 04:37:33;;;;;;;10.10;9.30;;;20.90;99.30;;;;;;6228003;28;20237;-63
2022/08/17 04:43:57;;;;;;;9.53;8.70;;;21.00;99.10;;;;;;6228066;28;20675;-62
2022/08/17 04:47:01;;;;;;;10.13;9.33;;;20.90;99.10;;;;;;6228794;28;20719;-62
2022/08/17 04:50:05;;;;;;;9.10;8.30;;;21.00;99.20;;;;;;6228293;28;20228;-62
2022/08/17 04:53:08;;;;;;;10.90;9.83;;;21.00;99.30;;;;;;6227794;28;20559;-62
2022/08/17 04:56:14;;;;;;;10.53;9.53;;;21.00;99.40;;;;;;6228002;28;20241;-62
2022/08/17 04:59:21;;;;;;;9.67;8.87;;;21.00;99.40;;;;;;6228042;28;20596;-62
2022/08/17 05:02:26;;;;;;;11.17;9.20;;;21.00;99.40;;;;;;6228280;28;20235;-62
2022/08/17 05:05:31;;;;;;;10.70;9.80;;;21.10;99.40;;;;;;6218759;28;20665;-62
2022/08/17 05:08:34;;;;;;;10.40;9.40;;;21.20;99.30;;;;;;6227674;28;20567;-62
2022/08/17 05:11:39;;;;;;;11.50;10.40;;;21.40;99.10;;;;;;6237755;28;20228;-62
2022/08/17 05:14:46;;;;;;;11.17;9.83;;;21.60;98.70;;;;;;6251831;28;20225;-62
2022/08/17 05:17:51;;;;;;;10.10;9.20;;;21.90;98.10;;;;;;6233900;28;20237;-62
2022/08/17 05:20:54;;;;;;;11.13;10.13;;;22.10;98.00;;;;;;6249495;28;20228;-62
2022/08/17 05:23:58;;;;;;;12.97;11.87;;;22.30;97.60;;;;;;6251866;28;20228;-62
2022/08/17 05:27:01;;;;;;;11.23;10.33;;;22.50;97.20;;;;;;6251739;28;20228;-62
2022/08/17 05:30:09;;;;;;;11.03;10.03;;;22.80;96.90;;;;;;6251686;28;20238;-62
2022/08/17 05:33:16;;;;;;;11.57;10.53;;;23.10;96.60;;;;;;6251005;28;20232;-62
2022/08/17 05:36:19;;;;;;;11.20;10.30;;;23.50;96.00;;;;;;6251384;28;20236;-62
2022/08/17 05:39:42;;;;;;;11.53;10.63;;;23.90;95.30;;;;;;6251263;28;20228;-63
2022/08/17 05:42:45;;;;;;;12.13;10.93;;;24.40;94.40;;;;;;6251310;28;20555;-63
2022/08/17 05:45:57;;;;;;;12.70;11.50;;;24.90;93.40;;;;;;6250879;28;20671;-66
2022/08/17 05:49:06;;;;;;;12.87;10.30;;;25.40;92.60;;;;;;6248760;28;20224;-66
2022/08/17 05:52:20;;;;;;;11.60;10.40;;;25.90;91.50;;;;;;6251374;28;20528;-65
2022/08/17 05:55:30;;;;;;;11.80;10.57;;;26.40;90.20;;;;;;6251093;28;20607;-65
2022/08/17 05:58:47;;;;;;;12.50;11.30;;;26.90;88.50;;;;;;6251255;28;20254;-65
2022/08/17 06:01:58;;;;;;;11.80;10.60;;;27.40;85.50;;;;;;6236625;28;20722;-65
2022/08/17 06:05:14;;;;;;;12.17;10.97;;;27.60;83.30;;;;;;6226551;28;20573;-65
2022/08/17 06:08:25;;;;;;;11.30;10.30;;;28.00;81.90;;;;;;6222060;28;20243;-66
2022/08/17 06:11:36;;;;;;;11.00;10.20;;;28.40;79.90;;;;;;6226724;28;20243;-66
2022/08/17 06:14:57;;;;;;;11.67;10.57;;;28.90;77.90;;;;;;6226353;28;20232;-66
2022/08/17 06:18:04;;;;;;;10.73;9.83;;;29.20;75.30;;;;;;6225651;28;20239;-66
2022/08/17 06:21:13;;;;;;;12.57;10.40;;;29.60;73.30;;;;;;6226414;28;20232;-66
2022/08/17 06:24:27;;;;;;;11.77;10.77;;;30.10;71.50;;;;;;6226158;28;20233;-66
2022/08/17 06:27:35;;;;;;;11.30;10.40;;;30.90;69.60;;;;;;6226132;28;20217;-66
2022/08/17 06:30:47;;;;;;;11.20;10.30;;;31.60;67.00;;;;;;6225780;28;20212;-66
2022/08/17 06:34:06;;;;;;;11.70;10.85;;;32.30;63.70;;;;;;6226340;28;20367;-66
2022/08/17 06:37:26;;;;;;;10.80;9.70;;;32.90;61.60;;;;;;6225319;28;20225;-66
2022/08/17 06:40:54;;;;;;;11.43;10.25;;;33.60;58.90;;;;;;6226181;28;20225;-66
2022/08/17 06:44:11;;;;;;;10.48;9.57;;;33.90;57.30;;;;;;6225598;28;20232;-66
2022/08/17 06:47:36;;;;;;;15.60;10.60;;;34.40;56.60;;;;;;6225770;28;20228;-66
2022/08/17 06:50:44;;;;;;;11.80;10.77;;;35.10;54.10;;;;;;6225979;28;20234;-66
2022/08/17 06:53:55;;;;;;;9.27;8.57;;;35.80;52.70;;;;;;6225325;28;20232;-66
2022/08/17 06:57:05;;;;;;;10.65;9.55;;;36.10;51.70;;;;;;6225206;28;20232;-65
2022/08/17 07:00:16;;;;;;;10.50;9.52;;;36.90;50.10;;;;;;6230581;28;20228;-66
2022/08/17 07:03:28;;;;;;;11.05;10.05;;;37.70;48.30;;;;;;6235478;28;20223;-65
2022/08/17 07:06:37;;;;;;;9.50;8.80;;;38.40;46.50;;;;;;6238321;28;20239;-65
2022/08/17 07:09:42;;;;;;;10.60;9.35;;;38.90;45.10;;;;;;6236766;28;20528;-65
2022/08/17 07:12:46;;;;;;;10.30;9.40;;;39.40;43.90;;;;;;6247313;28;20655;-65
2022/08/17 07:15:54;;;;;;;9.90;9.10;;;40.10;42.50;;;;;;6249762;28;20531;-65
2022/08/17 07:18:59;;;;;;;10.38;9.45;;;40.80;41.00;;;;;;6242916;28;20228;-65
2022/08/17 07:22:16;;;;;;;9.75;8.98;;;41.30;39.80;;;;;;6232863;28;20267;-65
2022/08/17 07:25:21;;;;;;;10.57;9.77;;;41.70;38.80;;;;;;6230861;28;20240;-65
2022/08/17 07:28:26;;;;;;;9.30;8.60;;;42.50;37.70;;;;;;6234130;28;20229;-65
2022/08/17 07:31:32;;;;;;;11.98;9.60;;;43.20;36.20;;;;;;6225269;28;20239;-65
2022/08/17 07:35:06;;;;;;;9.38;8.65;;;44.00;35.10;;;;;;6224782;28;20254;-65
2022/08/17 07:38:14;;;;;;;10.13;9.15;;;44.70;33.80;;;;;;6225244;28;20239;-65
2022/08/17 07:41:35;;;;;;;10.07;9.13;;;45.40;32.50;;;;;;6224708;28;20229;-65
2022/08/17 07:48:17;;;;;;;10.95;10.00;;;46.20;31.30;;;;;;6224624;28;20236;-66
2022/08/17 07:48:23;;;;;;;11.73;9.23;;;46.30;30.00;;;;;;6224918;28;20225;-66
2022/08/17 07:51:29;;;;;;;9.77;9.05;;;46.60;29.60;;;;;;6225062;28;20225;-66
2022/08/17 07:54:35;;;;;;;8.65;7.95;;;47.20;29.20;;;;;;6226075;28;20228;-66
2022/08/17 07:57:40;;;;;;;9.20;8.40;;;47.70;28.60;;;;;;6229472;28;20198;-66
2022/08/17 08:00:43;;;;;;;9.07;8.35;;;48.60;27.80;;;;;;6230383;28;20201;-66
2022/08/17 08:03:46;;;;;;;8.93;8.07;;;49.20;27.10;;;;;;6234936;28;20212;-65
2022/08/17 08:06:58;;;;;;;8.25;7.65;;;49.80;26.40;;;;;;6227610;28;20249;-66
2022/08/17 08:10:05;;;;;;;8.23;7.68;;;49.80;25.70;;;;;;6227333;28;20580;-64
2022/08/17 08:13:14;;;;;;;10.50;9.18;;;49.70;25.90;;;;;;6222937;28;20229;-64
2022/08/17 08:16:26;;;;;;;11.43;8.90;;;50.30;25.50;;;;;;6227400;28;20558;-64
2022/08/17 08:19:31;;;;;;;9.75;8.93;;;50.60;25.30;;;;;;6227744;28;20228;-64
2022/08/17 08:22:50;;;;;;;11.13;10.02;;;50.30;25.30;;;;;;6228723;28;20231;-64
2022/08/17 08:26:12;;;;;;;10.40;9.48;;;49.90;25.70;;;;;;6204217;28;20229;-64
2022/08/17 08:29:31;;;;;;;9.20;8.50;;;50.40;25.40;;;;;;6204494;28;20235;-64
2022/08/17 08:32:48;;;;;;;9.52;8.35;;;50.80;25.10;;;;;;6204516;28;20233;-64
2022/08/17 08:35:55;;;;;;;9.93;8.98;;;51.70;24.30;;;;;;6203854;28;20324;-65
2022/08/17 08:39:03;;;;;;;9.38;8.52;;;51.20;24.40;;;;;;6204329;28;20225;-65
2022/08/17 08:42:16;;;;;;;9.00;8.20;;;52.20;24.00;;;;;;6203042;28;20548;-65
2022/08/17 08:45:29;;;;;;;8.95;8.35;;;49.90;24.80;;;;;;6204034;28;20232;-65
2022/08/17 08:49:03;;;;;;;8.40;7.70;;;50.60;24.40;;;;;;6203786;28;20217;-64
2022/08/17 08:52:29;;;;;;;9.13;8.52;;;51.20;24.10;;;;;;6204031;28;20236;-64
2022/08/17 08:55:45;;;;;;;8.45;7.82;;;52.10;23.70;;;;;;6203642;28;20283;-64
2022/08/17 08:58:56;;;;;;;7.72;7.05;;;51.70;23.10;;;;;;6203159;28;20229;-64
2022/08/17 09:02:17;;;;;;;8.32;7.60;;;50.90;23.80;;;;;;6203891;28;20225;-64
2022/08/17 09:05:35;;;;;;;7.65;6.95;;;51.60;23.60;;;;;;6203180;28;20240;-64
2022/08/17 09:08:52;;;;;;;8.15;7.45;;;51.00;23.60;;;;;;6215465;28;20226;-64
2022/08/17 09:12:02;;;;;;;8.90;8.10;;;50.90;24.00;;;;;;6227664;28;20228;-64
2022/08/17 09:15:16;;;;;;;7.72;7.22;;;50.10;24.10;;;;;;6213320;28;20673;-65
2022/08/17 09:18:25;;;;;;;7.40;6.80;;;48.60;24.50;;;;;;6198861;28;20244;-65
2022/08/17 09:21:53;;;;;;;7.90;7.35;;;47.00;25.60;;;;;;6202687;28;20226;-64
2022/08/17 09:25:04;;;;;;;8.07;7.50;;;45.60;27.10;;;;;;6203065;28;20233;-64
2022/08/17 09:28:15;;;;;;;7.30;6.60;;;44.10;27.60;;;;;;6203584;28;20240;-66
2022/08/17 09:31:22;;;;;;;8.27;7.68;;;42.60;28.70;;;;;;6203619;28;20221;-63
2022/08/17 09:34:34;;;;;;;8.60;7.90;;;41.20;30.10;;;;;;6202685;28;20692;-63
2022/08/17 09:37:51;;;;;;;7.88;7.25;;;40.10;31.70;;;;;;6202928;28;20237;-63
2022/08/17 09:41:01;;;;;;;9.43;8.63;;;38.40;33.80;;;;;;6202580;28;20396;-64
2022/08/17 09:44:15;;;;;;;9.05;8.30;;;37.70;35.20;;;;;;6225467;28;20235;-64
2022/08/17 09:47:31;;;;;;;9.20;8.45;;;37.10;36.30;;;;;;6227115;28;20319;-63
2022/08/17 09:50:40;;;;;;;9.52;7.82;;;36.70;37.30;;;;;;6226974;28;20856;-64
2022/08/17 09:54:04;;;;;;;8.02;7.30;;;35.90;38.20;;;;;;6226942;28;20228;-63
2022/08/17 09:57:43;;;;;;;9.45;8.85;;;35.60;39.10;;;;;;6226422;28;20735;-63
2022/08/17 10:00:54;;;;;;;8.52;7.82;;;35.20;39.90;;;;;;6226691;28;20336;-63
2022/08/17 10:04:15;;;;;;;8.02;7.43;;;35.10;40.40;;;;;;6226421;28;20302;-66
2022/08/17 10:07:30;;;;;;;7.43;6.82;;;34.80;40.60;;;;;;6226905;28;20225;-64
2022/08/17 10:10:38;;;;;;;7.95;7.25;;;34.50;39.50;;;;;;6226714;28;20228;-64
2022/08/17 10:14:02;;;;;;;7.60;6.95;;;34.50;40.40;;;;;;6226990;28;20233;-63
2022/08/17 10:17:34;;;;;;;7.43;6.90;;;34.60;41.00;;;;;;6201523;28;20222;-64
2022/08/17 10:20:46;;;;;;;7.57;7.07;;;34.40;40.20;;;;;;6201139;28;20566;-65
2022/08/17 10:27:29;;;;;;;7.15;6.65;;;33.90;41.50;;;;;;6209965;28;20236;-68
2022/08/17 10:30:36;;;;;;;7.00;6.50;;;34.00;40.80;;;;;;6225275;28;20239;-66
2022/08/17 10:33:54;;;;;;;7.28;6.75;;;34.10;41.10;;;;;;6225564;28;20195;-62
2022/08/17 10:37:09;;;;;;;7.70;7.05;;;34.30;40.90;;;;;;6225052;28;20229;-63
2022/08/17 10:40:32;;;;;;;8.20;7.70;;;34.10;40.70;;;;;;6201292;28;20240;-62
2022/08/17 10:43:57;;;;;;;7.68;7.13;;;34.10;41.20;;;;;;6200990;28;20655;-64
2022/08/17 10:47:22;;;;;;;7.25;6.75;;;34.30;40.70;;;;;;6200963;28;20233;-63
2022/08/17 10:50:58;;;;;;;7.30;6.75;;;34.20;39.90;;;;;;6201352;28;20805;-62
2022/08/17 10:54:01;;;;;;;7.97;7.20;;;33.90;40.80;;;;;;6181450;28;20225;-63
2022/08/17 10:57:38;;;;;;;8.43;7.15;;;33.70;41.10;;;;;;6225344;28;20224;-63
2022/08/17 11:01:00;;;;;;;7.28;6.72;;;33.90;41.40;;;;;;6225199;28;20662;-62
2022/08/17 11:04:11;;;;;;;7.40;6.90;;;34.20;40.70;;;;;;6225381;28;20303;-62
2022/08/17 11:07:24;;;;;;;7.25;6.57;;;34.40;40.70;;;;;;6225688;28;20235;-63
2022/08/17 11:10:46;;;;;;;6.93;6.43;;;34.40;40.90;;;;;;6225036;28;20609;-62
2022/08/17 11:14:12;;;;;;;7.53;6.47;;;34.30;39.80;;;;;;6224959;28;20767;-63
2022/08/17 11:17:34;;;;;;;7.70;6.97;;;34.20;40.10;;;;;;6201077;28;20650;-63
2022/08/17 11:21:04;;;;;;;6.60;6.20;;;34.40;40.80;;;;;;6202637;28;21128;-62
2022/08/17 11:24:16;;;;;;;6.13;5.72;;;34.30;40.00;;;;;;6224530;28;20236;-62
2022/08/17 11:27:25;;;;;;;6.78;6.28;;;34.30;40.00;;;;;;6225259;28;20573;-63
2022/08/17 11:30:45;;;;;;;7.35;6.85;;;34.50;40.10;;;;;;6229760;28;20232;-65
2022/08/17 11:34:13;;;;;;;8.13;6.47;;;34.80;39.60;;;;;;6230176;28;20228;-65
2022/08/17 11:37:34;;;;;;;7.28;6.68;;;34.90;39.30;;;;;;6229917;28;20557;-65
2022/08/17 11:41:00;;;;;;;6.40;6.00;;;34.90;39.70;;;;;;6230801;28;20252;-65
2022/08/17 11:44:15;;;;;;;6.07;5.78;;;34.70;38.60;;;;;;6227383;28;20560;-66
2022/08/17 11:54:46;;;;;;;6.43;5.82;;;34.80;38.70;;;;;;6130964;28;20238;-65
2022/08/17 11:58:00;;;;;;;5.13;4.72;;;34.90;38.90;;;;;;6229484;28;20196;-65
2022/08/17 12:01:05;;;;;;;6.63;6.13;;;35.00;37.00;;;;;;6228194;28;20543;-65
2022/08/17 12:04:26;;;;;;;5.72;5.32;;;35.00;38.20;;;;;;6229067;28;20228;-65
2022/08/17 12:07:32;;;;;;;5.55;5.10;;;35.00;38.90;;;;;;6229025;28;20306;-64
2022/08/17 12:10:41;;;;;;;6.57;5.97;;;34.80;38.20;;;;;;6229110;28;20239;-64
2022/08/17 12:13:49;;;;;;;5.80;5.40;;;34.70;38.90;;;;;;6228653;28;20225;-66
2022/08/17 12:17:04;;;;;;;5.85;5.35;;;34.80;37.50;;;;;;6228887;28;20243;-65
2022/08/17 12:20:15;;;;;;;10.75;5.57;;;34.90;37.40;;;;;;6228608;28;20237;-65
2022/08/17 12:23:23;;;;;;;6.00;5.50;;;34.90;37.30;;;;;;6237395;28;20233;-65
2022/08/17 12:26:30;;;;;;;6.22;5.82;;;34.90;37.10;;;;;;6252945;28;20232;-65
2022/08/17 12:29:35;;;;;;;5.45;5.05;;;34.90;37.30;;;;;;6233736;28;20236;-65
2022/08/17 12:32:44;;;;;;;4.95;4.57;;;34.90;36.30;;;;;;6228386;28;20692;-65
2022/08/17 12:35:58;;;;;;;6.30;5.90;;;34.90;36.40;;;;;;6228538;28;20677;-65
2022/08/17 12:39:07;;;;;;;4.93;4.53;;;34.90;36.40;;;;;;6228045;28;20303;-63
2022/08/17 12:42:28;;;;;;;5.25;4.75;;;34.90;35.30;;;;;;6227687;28;20256;-65
2022/08/17 12:45:33;;;;;;;4.82;4.53;;;34.90;35.70;;;;;;6228484;28;20311;-66
2022/08/17 12:48:36;;;;;;;5.30;4.90;;;34.90;34.50;;;;;;6228443;28;20239;-65
2022/08/17 12:51:45;;;;;;;4.90;4.38;;;35.00;35.10;;;;;;6228517;28;20204;-65
2022/08/17 12:54:58;;;;;;;6.13;5.10;;;35.00;34.10;;;;;;6228246;28;20244;-64
2022/08/17 12:58:02;;;;;;;5.30;4.80;;;35.20;34.70;;;;;;6228182;28;20710;-64
2022/08/17 13:01:08;;;;;;;6.95;4.70;;;35.20;35.10;;;;;;6228172;28;20795;-64
2022/08/17 13:04:13;;;;;;;5.63;4.68;;;34.90;35.40;;;;;;6227579;28;20233;-66
2022/08/17 13:07:29;;;;;;;6.47;5.97;;;34.90;36.00;;;;;;6227790;28;20224;-65
2022/08/17 13:10:34;;;;;;;6.75;6.25;;;35.00;38.20;;;;;;6227464;28;20229;-65
2022/08/17 13:13:39;;;;;;;6.60;6.00;;;34.80;38.50;;;;;;6228382;28;20251;-64
2022/08/17 13:16:49;;;;;;;5.60;5.13;;;34.90;37.70;;;;;;6243097;28;20224;-64
2022/08/17 13:19:53;;;;;;;5.78;5.38;;;34.80;36.50;;;;;;6240254;28;20259;-63
2022/08/17 13:23:01;;;;;;;5.68;5.25;;;34.90;37.10;;;;;;6233745;28;20710;-63
2022/08/17 13:26:08;;;;;;;6.63;5.18;;;34.80;37.00;;;;;;6227436;28;20235;-63
2022/08/17 13:29:20;;;;;;;6.18;5.78;;;34.80;37.50;;;;;;6241208;28;20220;-64
2022/08/17 13:32:34;;;;;;;5.90;5.47;;;34.60;37.70;;;;;;6218347;28;20567;-63
2022/08/17 13:35:43;;;;;;;6.00;5.50;;;34.60;38.10;;;;;;6227173;28;20245;-63
2022/08/17 13:39:06;;;;;;;5.93;5.43;;;34.50;38.00;;;;;;6227283;28;20547;-63
2022/08/17 13:42:31;;;;;;;5.72;5.22;;;34.50;37.80;;;;;;6226800;28;20232;-63
2022/08/17 13:45:48;;;;;;;5.47;4.97;;;34.60;37.50;;;;;;6226828;28;20299;-63
2022/08/17 13:49:02;;;;;;;5.38;4.97;;;34.60;37.50;;;;;;6226959;28;20273;-63
2022/08/17 13:52:05;;;;;;;7.70;6.15;;;34.60;38.00;;;;;;6225976;28;20228;-63
2022/08/17 13:55:18;;;;;;;6.10;5.70;;;34.60;38.00;;;;;;6226307;28;20582;-63
2022/08/17 13:58:25;;;;;;;5.90;5.50;;;34.50;38.10;;;;;;6226511;28;20224;-63
2022/08/17 14:01:31;;;;;;;6.05;5.65;;;34.60;38.20;;;;;;6226740;28;20243;-63
2022/08/17 14:04:35;;;;;;;6.15;5.75;;;34.60;37.80;;;;;;6226264;28;20316;-63
2022/08/17 14:07:39;;;;;;;6.00;5.60;;;34.60;37.80;;;;;;6226189;28;20706;-63
2022/08/17 14:10:44;;;;;;;5.97;5.47;;;34.50;38.10;;;;;;6226147;28;20233;-65
2022/08/17 14:13:48;;;;;;;6.43;5.97;;;34.30;38.00;;;;;;6226600;28;20238;-64
2022/08/17 14:16:51;;;;;;;6.10;5.70;;;34.20;38.40;;;;;;6225924;28;20240;-64
2022/08/17 14:19:54;;;;;;;5.65;5.18;;;33.90;38.00;;;;;;6226003;28;20232;-64
2022/08/17 14:22:58;;;;;;;5.05;4.65;;;34.00;38.70;;;;;;6225398;28;20263;-64
2022/08/17 14:26:02;;;;;;;6.10;5.60;;;34.00;38.40;;;;;;6226064;28;20240;-64
2022/08/17 14:29:06;;;;;;;7.88;5.80;;;34.00;38.60;;;;;;6225607;28;20228;-66
2022/08/17 14:32:22;;;;;;;6.28;5.78;;;34.00;39.10;;;;;;6231152;28;20672;-65
2022/08/17 14:35:26;;;;;;;5.18;4.88;;;34.00;39.10;;;;;;6233176;28;20232;-64
2022/08/17 14:38:30;;;;;;;5.85;5.45;;;34.10;39.40;;;;;;6226928;28;20216;-64
2022/08/17 14:41:35;;;;;;;5.22;4.80;;;34.10;39.10;;;;;;6238780;28;20246;-64
2022/08/17 14:44:38;;;;;;;6.07;5.68;;;34.10;38.80;;;;;;6237580;28;20231;-64
2022/08/17 14:47:42;;;;;;;5.85;5.35;;;34.10;38.70;;;;;;6248772;28;20322;-64
2022/08/17 14:50:45;;;;;;;5.88;5.47;;;34.10;38.50;;;;;;6249929;28;20310;-64
2022/08/17 14:53:48;;;;;;;5.55;5.05;;;34.20;38.70;;;;;;6243523;28;20230;-64
2022/08/17 14:56:53;;;;;;;5.35;5.05;;;34.20;38.40;;;;;;6230651;28;20232;-64
2022/08/17 15:00:16;;;;;;;5.60;5.10;;;34.20;38.20;;;;;;6225300;28;20232;-64
2022/08/17 15:03:19;;;;;;;6.15;5.75;;;34.10;37.60;;;;;;6223515;28;20232;-64
2022/08/17 15:06:23;;;;;;;5.60;5.15;;;34.00;38.00;;;;;;6223524;28;20241;-65
2022/08/17 15:09:26;;;;;;;7.05;5.00;;;34.10;38.00;;;;;;6223375;28;20232;-65
2022/08/17 15:12:35;;;;;;;5.80;5.30;;;34.20;38.40;;;;;;6223913;28;20248;-64
2022/08/17 15:15:39;;;;;;;5.97;5.38;;;34.00;38.20;;;;;;6224622;28;20216;-64
2022/08/17 15:18:42;;;;;;;5.35;4.95;;;34.10;38.40;;;;;;6225079;28;20300;-64
2022/08/17 15:21:45;;;;;;;4.78;4.47;;;34.00;37.80;;;;;;6225523;28;20219;-65
2022/08/17 15:24:48;;;;;;;5.03;4.53;;;34.20;37.20;;;;;;6224846;28;20246;-64
2022/08/17 15:27:54;;;;;;;5.90;5.43;;;34.20;36.60;;;;;;6224984;28;20223;-64
2022/08/17 15:30:57;;;;;;;6.13;5.63;;;34.10;37.60;;;;;;6224780;28;20228;-65
2022/08/17 15:34:00;;;;;;;5.35;4.95;;;34.00;37.60;;;;;;6225453;28;20223;-64
2022/08/17 15:37:03;;;;;;;4.70;4.40;;;34.00;37.30;;;;;;6224726;28;20229;-64
2022/08/17 15:40:09;;;;;;;5.65;5.35;;;33.90;37.70;;;;;;6219766;28;20238;-64
2022/08/17 15:43:16;;;;;;;4.65;4.22;;;34.00;37.20;;;;;;6249435;28;20673;-64
2022/08/17 15:46:25;;;;;;;4.90;4.50;;;34.10;37.70;;;;;;6249220;28;20240;-64
2022/08/17 15:49:29;;;;;;;5.38;4.97;;;34.10;38.10;;;;;;6249019;28;20549;-64
2022/08/17 15:52:36;;;;;;;5.32;4.85;;;33.90;38.30;;;;;;6249170;28;20238;-64
2022/08/17 15:55:39;;;;;;;5.03;4.72;;;33.70;38.10;;;;;;6240052;28;20256;-64
2022/08/17 15:58:46;;;;;;;8.50;5.03;;;33.60;38.50;;;;;;6224995;28;20315;-64
2022/08/17 16:01:49;;;;;;;5.43;5.00;;;33.40;38.70;;;;;;6224848;28;20225;-64
2022/08/17 16:05:15;;;;;;;5.35;5.05;;;33.40;38.50;;;;;;6224298;28;20236;-63
2022/08/17 16:08:21;;;;;;;6.05;5.18;;;33.50;39.20;;;;;;6225051;28;20278;-63
2022/08/17 16:11:26;;;;;;;5.50;4.78;;;33.60;39.30;;;;;;6230437;28;20228;-66
2022/08/17 16:14:30;;;;;;;5.18;4.78;;;33.40;39.40;;;;;;6248545;28;20239;-63
2022/08/17 16:17:37;;;;;;;5.18;4.78;;;33.40;39.60;;;;;;6253710;28;20306;-64
2022/08/17 16:20:42;;;;;;;5.28;4.68;;;33.40;38.20;;;;;;6253982;28;20231;-63
2022/08/17 16:23:46;;;;;;;5.22;4.82;;;33.50;38.20;;;;;;6253918;28;20238;-63
2022/08/17 16:26:49;;;;;;;5.93;5.32;;;33.60;38.90;;;;;;6252956;28;20228;-63
2022/08/17 16:29:54;;;;;;;5.68;4.70;;;33.60;38.90;;;;;;6240095;28;20224;-63
2022/08/17 16:32:59;;;;;;;4.80;4.40;;;33.60;39.20;;;;;;6228685;28;20239;-63
2022/08/17 16:36:03;;;;;;;5.35;4.95;;;33.50;39.50;;;;;;6228548;28;20255;-64
2022/08/17 16:39:06;;;;;;;4.65;4.35;;;33.60;39.70;;;;;;6228561;28;20239;-64
2022/08/17 16:42:23;;;;;;;4.72;4.32;;;33.60;39.60;;;;;;6228342;28;20665;-65
2022/08/17 16:45:38;;;;;;;5.30;4.63;;;33.60;39.60;;;;;;6219700;28;20730;-63
2022/08/17 16:48:45;;;;;;;7.22;4.88;;;33.40;39.80;;;;;;6228570;28;20228;-64